Time;durP1;ratioP1;P1;durP2;ratioP2;P2;SDS_P1;SDS_P2;PMS_P1;PMS_P2;Temp;Humidity;BMP_temperature;BMP_pressure;BME280_temperature;BME280_humidity;BME280_pressure;Samples;Min_cycle;Max_cycle;Signal;HPM_P1;HPM_P2
2022/06/28 00:01:03;;;;;;;5.88;2.92;;;18.60;95.40;;;;;;5096684;28;20067;-74
2022/06/28 00:03:29;;;;;;;6.85;2.72;;;18.60;95.40;;;;;;5096570;28;20467;-75
2022/06/28 00:05:55;;;;;;;4.53;2.58;;;18.60;95.40;;;;;;5096283;28;20095;-75
2022/06/28 00:08:20;;;;;;;4.57;2.50;;;18.60;95.40;;;;;;5096774;28;20462;-74
2022/06/28 00:10:46;;;;;;;2.65;1.80;;;18.60;95.50;;;;;;5096556;28;20036;-74
2022/06/28 00:13:12;;;;;;;4.10;2.30;;;18.60;95.50;;;;;;5096097;28;20020;-74
2022/06/28 00:18:22;;;;;;;7.03;2.70;;;18.60;95.60;;;;;;5096523;28;20030;-75
2022/06/28 00:20:47;;;;;;;3.78;2.35;;;18.60;95.50;;;;;;5096517;28;20020;-75
2022/06/28 00:23:13;;;;;;;6.18;2.97;;;18.60;95.40;;;;;;5096234;28;20459;-75
2022/06/28 00:25:39;;;;;;;3.58;2.80;;;18.60;95.40;;;;;;5096231;28;20056;-75
2022/06/28 00:28:04;;;;;;;4.78;3.40;;;18.60;95.40;;;;;;5096240;28;20444;-75
2022/06/28 00:30:30;;;;;;;4.80;2.60;;;18.50;95.40;;;;;;5095942;28;20119;-75
2022/06/28 00:32:56;;;;;;;4.38;2.08;;;18.50;95.50;;;;;;5096204;28;20104;-75
2022/06/28 00:35:21;;;;;;;4.55;2.65;;;18.50;95.60;;;;;;5095803;28;20384;-75
2022/06/28 00:37:48;;;;;;;6.90;3.28;;;18.50;95.60;;;;;;5095078;28;20028;-75
2022/06/28 00:40:13;;;;;;;5.97;4.30;;;18.50;95.50;;;;;;5095852;28;20079;-75
2022/06/28 00:42:39;;;;;;;7.15;4.18;;;18.50;95.60;;;;;;5096088;28;20024;-75
2022/06/28 00:45:06;;;;;;;3.40;2.40;;;18.40;95.70;;;;;;5095799;28;20051;-75
2022/06/28 00:47:32;;;;;;;4.63;3.45;;;18.40;95.80;;;;;;5095951;28;20518;-75
2022/06/28 00:49:59;;;;;;;3.90;2.70;;;18.40;95.70;;;;;;5095522;28;20115;-75
2022/06/28 00:52:25;;;;;;;3.83;3.40;;;18.40;95.70;;;;;;5095668;28;20076;-75
2022/06/28 00:54:51;;;;;;;4.78;2.83;;;18.40;95.70;;;;;;5095718;28;20031;-75
2022/06/28 00:57:17;;;;;;;8.70;3.40;;;18.40;95.70;;;;;;5095574;28;20028;-75
2022/06/28 00:59:43;;;;;;;5.65;3.85;;;18.50;95.70;;;;;;5095630;28;20078;-75
2022/06/28 01:02:08;;;;;;;3.88;3.47;;;18.40;95.60;;;;;;5095498;28;20382;-75
2022/06/28 01:04:35;;;;;;;4.60;3.17;;;18.50;95.70;;;;;;5095433;28;20035;-75
2022/06/28 01:07:01;;;;;;;6.28;4.25;;;18.50;95.60;;;;;;5095501;28;20059;-75
2022/06/28 01:09:27;;;;;;;5.15;4.18;;;18.50;95.70;;;;;;5095395;28;20055;-75
2022/06/28 01:11:53;;;;;;;3.53;3.22;;;18.50;95.60;;;;;;5095318;28;20055;-75
2022/06/28 01:14:18;;;;;;;6.43;3.42;;;18.50;95.60;;;;;;5095439;28;20070;-75
2022/06/28 01:16:45;;;;;;;4.47;4.07;;;18.40;95.60;;;;;;5095150;28;20093;-75
2022/06/28 01:19:10;;;;;;;3.70;3.40;;;18.40;95.60;;;;;;5095328;28;20024;-75
2022/06/28 01:21:37;;;;;;;5.25;4.30;;;18.40;95.60;;;;;;5095202;28;20379;-75
2022/06/28 01:24:04;;;;;;;4.95;4.55;;;18.40;95.50;;;;;;5094788;28;20063;-75
2022/06/28 01:26:31;;;;;;;4.50;4.10;;;18.40;95.60;;;;;;5095310;28;20028;-75
2022/06/28 01:28:57;;;;;;;5.68;3.85;;;18.40;95.60;;;;;;5094914;28;20028;-75
2022/06/28 01:31:23;;;;;;;3.78;3.08;;;18.30;95.60;;;;;;5094772;28;20081;-75
2022/06/28 01:33:52;;;;;;;4.68;3.08;;;18.30;95.60;;;;;;5095128;28;20165;-75
2022/06/28 01:36:17;;;;;;;3.47;2.97;;;18.30;95.60;;;;;;5094504;28;20475;-75
2022/06/28 01:38:44;;;;;;;7.10;3.20;;;18.30;95.60;;;;;;5095047;28;20028;-75
2022/06/28 01:41:32;;;;;;;4.90;3.72;;;18.30;95.60;;;;;;5094767;28;20103;-75
2022/06/28 01:43:56;;;;;;;8.15;4.45;;;18.40;95.60;;;;;;5094578;28;20498;-75
2022/06/28 01:46:23;;;;;;;6.47;4.68;;;18.30;95.50;;;;;;5094804;28;20025;-75
2022/06/28 01:48:48;;;;;;;8.38;4.45;;;18.30;95.50;;;;;;5094375;28;20044;-75
2022/06/28 01:51:14;;;;;;;5.30;3.78;;;18.20;95.50;;;;;;5094715;28;20481;-75
2022/06/28 01:53:39;;;;;;;4.20;3.80;;;18.20;95.50;;;;;;5094493;28;20048;-75
2022/06/28 01:56:05;;;;;;;4.43;4.10;;;18.20;95.50;;;;;;5094358;28;20428;-75
2022/06/28 01:58:31;;;;;;;4.68;3.97;;;18.30;95.50;;;;;;5094663;28;20020;-75
2022/06/28 02:00:57;;;;;;;4.30;3.90;;;18.30;95.50;;;;;;5094640;28;20062;-75
2022/06/28 02:03:23;;;;;;;3.90;3.60;;;18.30;95.50;;;;;;5094479;28;20024;-75
2022/06/28 02:05:48;;;;;;;6.07;4.40;;;18.30;95.50;;;;;;5094349;28;20539;-75
2022/06/28 02:08:14;;;;;;;6.93;4.40;;;18.30;95.50;;;;;;5094735;28;20027;-75
2022/06/28 02:10:40;;;;;;;4.72;4.22;;;18.30;95.50;;;;;;5093795;28;20036;-75
2022/06/28 02:13:05;;;;;;;4.35;3.95;;;18.30;95.40;;;;;;5094344;28;20114;-75
2022/06/28 02:15:31;;;;;;;11.68;4.97;;;18.30;95.40;;;;;;5094284;28;20020;-75
2022/06/28 02:18:00;;;;;;;5.97;4.80;;;18.30;95.30;;;;;;5094033;28;20062;-75
2022/06/28 02:20:25;;;;;;;6.30;4.80;;;18.30;95.30;;;;;;5094253;28;20111;-75
2022/06/28 02:22:51;;;;;;;4.72;4.32;;;18.30;95.30;;;;;;5094218;28;20055;-75
2022/06/28 02:25:17;;;;;;;3.60;3.30;;;18.20;95.40;;;;;;5093614;28;20027;-75
2022/06/28 02:27:43;;;;;;;5.22;4.18;;;18.20;95.40;;;;;;5094155;28;20030;-75
2022/06/28 02:30:10;;;;;;;4.65;4.15;;;18.20;95.40;;;;;;5094048;28;20039;-75
2022/06/28 02:32:36;;;;;;;4.13;3.50;;;18.30;95.40;;;;;;5093674;28;20023;-75
2022/06/28 02:40:31;;;;;;;5.03;4.53;;;18.30;95.30;;;;;;5094043;28;20034;-75
2022/06/28 02:42:58;;;;;;;5.10;4.68;;;18.30;95.30;;;;;;5093695;28;20024;-75
2022/06/28 02:45:27;;;;;;;5.82;4.35;;;18.30;95.30;;;;;;5093630;28;20035;-75
2022/06/28 02:47:53;;;;;;;5.25;4.75;;;18.30;95.20;;;;;;5093818;28;20016;-75
2022/06/28 02:50:18;;;;;;;6.22;5.65;;;18.30;95.50;;;;;;5093199;28;20047;-75
2022/06/28 02:52:44;;;;;;;8.93;5.88;;;18.30;95.20;;;;;;5093547;28;20522;-75
2022/06/28 02:55:10;;;;;;;6.60;6.00;;;18.30;95.20;;;;;;5093378;28;20040;-75
2022/06/28 02:57:37;;;;;;;9.30;6.18;;;18.30;95.20;;;;;;5093615;28;20032;-75
2022/06/28 03:00:11;;;;;;;6.75;5.20;;;18.20;95.20;;;;;;5093003;28;20052;-75
2022/06/28 03:02:39;;;;;;;6.88;5.63;;;18.20;95.30;;;;;;5093182;28;20046;-75
2022/06/28 03:05:06;;;;;;;7.00;5.50;;;18.10;95.30;;;;;;5093252;28;20486;-75
2022/06/28 03:07:32;;;;;;;7.55;6.00;;;18.10;95.40;;;;;;5093302;28;20020;-75
2022/06/28 03:09:58;;;;;;;6.95;6.13;;;18.10;95.40;;;;;;5093194;28;20024;-75
2022/06/28 03:12:24;;;;;;;7.47;6.78;;;18.10;95.50;;;;;;5093329;28;20107;-75
2022/06/28 03:14:49;;;;;;;6.07;5.57;;;18.10;95.50;;;;;;5093288;28;20027;-75
2022/06/28 03:17:15;;;;;;;8.27;6.32;;;18.00;95.50;;;;;;5093241;28;20024;-75
2022/06/28 03:19:40;;;;;;;6.40;5.80;;;18.00;95.60;;;;;;5093093;28;20020;-75
2022/06/28 03:22:06;;;;;;;5.82;5.32;;;18.00;95.70;;;;;;5093008;28;20089;-75
2022/06/28 03:24:32;;;;;;;8.50;6.15;;;18.00;95.80;;;;;;5092963;28;20048;-75
2022/06/28 03:26:58;;;;;;;6.30;5.70;;;17.90;95.80;;;;;;5093297;28;20039;-75
2022/06/28 03:29:24;;;;;;;5.38;4.88;;;17.90;95.90;;;;;;5092956;28;20020;-75
2022/06/28 03:31:49;;;;;;;4.80;4.40;;;17.80;96.00;;;;;;5093013;28;20043;-75
2022/06/28 03:34:16;;;;;;;5.60;5.07;;;17.90;96.10;;;;;;5092889;28;20024;-74
2022/06/28 03:36:42;;;;;;;4.75;4.35;;;17.90;96.10;;;;;;5093044;28;20109;-75
2022/06/28 03:39:08;;;;;;;7.50;5.82;;;17.90;96.10;;;;;;5093225;28;20455;-75
2022/06/28 03:41:33;;;;;;;5.43;4.90;;;17.90;96.10;;;;;;5092986;28;20023;-75
2022/06/28 03:43:59;;;;;;;5.30;4.45;;;17.90;96.10;;;;;;5092870;28;20028;-75
2022/06/28 03:46:25;;;;;;;7.22;5.15;;;17.80;96.10;;;;;;5092865;28;20016;-75
2022/06/28 03:48:50;;;;;;;6.38;5.28;;;17.80;96.10;;;;;;5092796;28;20423;-75
2022/06/28 03:51:16;;;;;;;6.97;5.55;;;17.80;96.10;;;;;;5093004;28;20036;-75
2022/06/28 03:53:42;;;;;;;7.35;6.60;;;17.80;96.10;;;;;;5092982;28;20048;-75
2022/06/28 03:56:08;;;;;;;6.55;5.90;;;17.80;96.10;;;;;;5092542;28;20032;-75
2022/06/28 03:58:34;;;;;;;5.65;5.00;;;17.80;96.20;;;;;;5092803;28;20024;-75
2022/06/28 04:01:00;;;;;;;5.25;4.22;;;17.80;96.30;;;;;;5092804;28;20024;-75
2022/06/28 04:03:26;;;;;;;9.57;4.95;;;17.80;96.30;;;;;;5093119;28;20107;-75
2022/06/28 04:05:52;;;;;;;5.82;5.10;;;17.80;96.30;;;;;;5093031;28;20025;-75
2022/06/28 04:08:18;;;;;;;6.57;4.80;;;17.80;96.60;;;;;;5092917;28;20085;-75
2022/06/28 04:10:44;;;;;;;6.60;5.25;;;17.80;96.30;;;;;;5092711;28;20035;-75
2022/06/28 04:13:10;;;;;;;8.20;5.75;;;17.80;96.40;;;;;;5096066;28;20024;-75
2022/06/28 04:15:37;;;;;;;6.10;4.75;;;17.80;96.30;;;;;;5096621;28;20028;-75
2022/06/28 04:18:04;;;;;;;5.22;4.82;;;17.80;96.40;;;;;;5096481;28;20042;-75
2022/06/28 04:20:30;;;;;;;5.78;5.20;;;17.80;96.40;;;;;;5096532;28;20039;-75
2022/06/28 04:22:55;;;;;;;5.68;5.18;;;17.80;96.40;;;;;;5096272;28;20467;-75
2022/06/28 04:25:21;;;;;;;4.70;4.30;;;17.80;96.40;;;;;;5096162;28;20032;-75
2022/06/28 04:27:46;;;;;;;7.93;5.78;;;17.80;96.40;;;;;;5096067;28;20033;-75
2022/06/28 04:30:12;;;;;;;5.80;5.30;;;17.80;96.50;;;;;;5096050;28;20032;-75
2022/06/28 04:32:38;;;;;;;4.32;3.92;;;17.80;96.50;;;;;;5096088;28;20024;-75
2022/06/28 04:35:04;;;;;;;5.38;4.88;;;17.70;96.50;;;;;;5096220;28;20027;-75
2022/06/28 04:37:30;;;;;;;6.63;4.78;;;17.70;96.50;;;;;;5095984;28;20028;-75
2022/06/28 04:39:55;;;;;;;8.82;5.75;;;17.70;96.60;;;;;;5095877;28;20031;-74
2022/06/28 04:42:21;;;;;;;7.78;5.18;;;17.60;96.70;;;;;;5095682;28;20047;-75
2022/06/28 04:44:46;;;;;;;6.85;4.82;;;17.50;96.70;;;;;;5095983;28;20375;-75
2022/06/28 04:47:12;;;;;;;10.45;5.10;;;17.30;96.80;;;;;;5095641;28;20103;-75
2022/06/28 04:49:38;;;;;;;10.27;5.30;;;17.20;97.00;;;;;;5095427;28;20048;-75
2022/06/28 04:52:04;;;;;;;7.78;4.82;;;17.20;97.10;;;;;;5095910;28;20028;-75
2022/06/28 04:54:31;;;;;;;8.68;5.40;;;17.10;97.20;;;;;;5095543;28;20417;-75
2022/06/28 04:56:56;;;;;;;10.52;5.03;;;17.10;97.20;;;;;;5095476;28;20387;-75
2022/06/28 04:59:22;;;;;;;9.20;5.00;;;17.00;97.40;;;;;;5095433;28;20020;-75
2022/06/28 05:01:48;;;;;;;10.27;4.55;;;17.00;97.40;;;;;;5095314;28;20056;-75
2022/06/28 05:04:14;;;;;;;5.72;4.53;;;17.00;97.50;;;;;;5095295;28;20035;-75
2022/06/28 05:06:40;;;;;;;6.38;3.97;;;17.00;97.40;;;;;;5095177;28;20035;-75
2022/06/28 05:09:05;;;;;;;7.57;4.85;;;17.10;97.40;;;;;;5095220;28;20020;-75
2022/06/28 05:11:31;;;;;;;8.07;4.88;;;17.10;97.50;;;;;;5095418;28;20123;-75
2022/06/28 05:13:58;;;;;;;6.85;4.57;;;17.10;97.50;;;;;;5095057;28;20467;-75
2022/06/28 05:16:24;;;;;;;6.00;4.57;;;17.10;97.50;;;;;;5095120;28;20035;-75
2022/06/28 05:18:49;;;;;;;7.90;4.90;;;17.20;97.60;;;;;;5095174;28;20016;-75
2022/06/28 05:21:15;;;;;;;8.13;4.45;;;17.20;97.60;;;;;;5095069;28;20024;-75
2022/06/28 05:23:40;;;;;;;6.07;4.10;;;17.10;97.50;;;;;;5094692;28;20352;-75
2022/06/28 05:26:06;;;;;;;7.13;4.43;;;17.10;97.60;;;;;;5094506;28;20066;-75
2022/06/28 05:28:32;;;;;;;5.50;4.40;;;17.10;97.60;;;;;;5094761;28;20024;-75
2022/06/28 05:30:58;;;;;;;8.15;4.47;;;17.10;97.50;;;;;;5094840;28;20036;-75
2022/06/28 05:33:24;;;;;;;5.80;4.07;;;17.00;97.40;;;;;;5094859;28;20095;-75
2022/06/28 05:35:49;;;;;;;7.15;3.55;;;17.10;97.40;;;;;;5094329;28;20146;-75
2022/06/28 05:38:15;;;;;;;5.80;4.10;;;17.00;97.40;;;;;;5094697;28;20023;-76
2022/06/28 05:40:41;;;;;;;5.22;3.80;;;17.00;97.40;;;;;;5094784;28;20024;-75
2022/06/28 05:43:07;;;;;;;9.63;4.05;;;17.00;97.30;;;;;;5094281;28;20035;-75
2022/06/28 05:45:32;;;;;;;7.63;3.50;;;17.00;97.40;;;;;;5094445;28;20463;-75
2022/06/28 05:47:58;;;;;;;9.20;3.63;;;17.10;97.50;;;;;;5094783;28;20035;-75
2022/06/28 05:50:23;;;;;;;8.13;3.83;;;17.10;97.60;;;;;;5094076;28;20447;-75
2022/06/28 05:52:50;;;;;;;6.30;3.33;;;17.10;97.50;;;;;;5094418;28;20478;-75
2022/06/28 05:55:15;;;;;;;8.55;3.67;;;17.20;97.40;;;;;;5094180;28;20031;-75
2022/06/28 05:57:41;;;;;;;4.82;3.03;;;17.10;97.20;;;;;;5094555;28;20020;-75
2022/06/28 06:00:07;;;;;;;10.27;3.38;;;17.20;97.20;;;;;;5094422;28;20028;-75
2022/06/28 06:02:33;;;;;;;8.73;3.00;;;17.30;97.30;;;;;;5094469;28;20024;-75
2022/06/28 06:04:59;;;;;;;11.02;3.28;;;17.30;97.10;;;;;;5094320;28;20030;-76
2022/06/28 06:07:25;;;;;;;9.20;3.33;;;17.30;97.30;;;;;;5094248;28;20043;-76
2022/06/28 06:09:51;;;;;;;7.57;3.33;;;17.40;97.30;;;;;;5093867;28;20060;-75
2022/06/28 06:12:17;;;;;;;7.95;3.72;;;17.40;97.30;;;;;;5094214;28;20031;-76
2022/06/28 06:14:43;;;;;;;7.18;4.03;;;17.40;97.10;;;;;;5094109;28;20028;-75
2022/06/28 06:17:09;;;;;;;8.27;3.83;;;17.40;97.10;;;;;;5093972;28;20383;-75
2022/06/28 06:19:34;;;;;;;9.13;4.22;;;17.50;97.10;;;;;;5093348;28;20533;-75
2022/06/28 06:22:00;;;;;;;13.75;4.50;;;17.40;97.00;;;;;;5093879;28;20047;-75
2022/06/28 06:24:25;;;;;;;10.02;4.38;;;17.50;97.00;;;;;;5093454;28;20020;-76
2022/06/28 06:26:51;;;;;;;9.70;4.13;;;17.50;97.10;;;;;;5093698;28;20027;-75
2022/06/28 06:29:17;;;;;;;10.73;4.10;;;17.60;96.90;;;;;;5093699;28;20035;-75
2022/06/28 06:31:42;;;;;;;8.63;4.47;;;17.70;96.90;;;;;;5093721;28;20032;-75
2022/06/28 06:34:08;;;;;;;15.75;5.85;;;17.80;96.60;;;;;;5093210;28;20054;-75
2022/06/28 06:36:35;;;;;;;12.68;4.53;;;17.70;96.40;;;;;;5093688;28;20483;-75
2022/06/28 06:39:00;;;;;;;12.05;4.85;;;17.70;96.40;;;;;;5093262;28;20031;-75
2022/06/28 06:41:26;;;;;;;11.90;4.20;;;17.80;96.40;;;;;;5093611;28;20020;-75
2022/06/28 06:43:53;;;;;;;12.05;4.03;;;17.80;96.40;;;;;;5093422;28;20028;-76
2022/06/28 06:46:19;;;;;;;8.57;4.03;;;17.90;96.40;;;;;;5093774;28;20012;-75
2022/06/28 06:48:44;;;;;;;13.55;4.07;;;18.00;96.40;;;;;;5093440;28;20040;-75
2022/06/28 06:51:10;;;;;;;18.10;5.03;;;18.10;96.20;;;;;;5093014;28;20108;-76
2022/06/28 06:53:36;;;;;;;13.82;3.92;;;18.20;96.30;;;;;;5093309;28;20059;-75
2022/06/28 06:56:01;;;;;;;15.63;4.13;;;18.30;96.30;;;;;;5093299;28;20376;-75
2022/06/28 06:58:27;;;;;;;17.23;4.63;;;18.40;96.10;;;;;;5093628;28;20031;-75
2022/06/28 07:00:53;;;;;;;13.27;4.50;;;18.50;95.80;;;;;;5092639;28;20098;-75
2022/06/28 07:03:19;;;;;;;14.50;4.88;;;18.60;95.70;;;;;;5093457;28;20035;-75
2022/06/28 07:05:44;;;;;;;14.52;5.57;;;18.70;95.70;;;;;;5093431;28;20032;-75
2022/06/28 07:08:10;;;;;;;15.13;4.78;;;18.70;95.60;;;;;;5093376;28;20070;-75
2022/06/28 07:10:36;;;;;;;13.90;4.38;;;18.80;95.90;;;;;;5093130;28;20031;-75
2022/06/28 07:13:01;;;;;;;16.83;4.20;;;18.80;95.40;;;;;;5092819;28;20104;-75
2022/06/28 07:15:27;;;;;;;12.20;3.88;;;18.80;95.30;;;;;;5093165;28;20122;-75
2022/06/28 07:17:52;;;;;;;19.65;4.80;;;18.80;95.20;;;;;;5093128;28;20065;-75
2022/06/28 07:20:18;;;;;;;15.30;4.05;;;18.80;95.10;;;;;;5093161;28;20032;-75
2022/06/28 07:22:44;;;;;;;16.08;4.45;;;18.90;95.30;;;;;;5092725;28;20492;-75
2022/06/28 07:25:10;;;;;;;19.30;3.67;;;18.90;95.30;;;;;;5092935;28;20024;-75
2022/06/28 07:27:35;;;;;;;11.85;3.75;;;19.00;95.00;;;;;;5093150;28;20020;-75
2022/06/28 07:30:01;;;;;;;19.23;3.70;;;19.00;94.80;;;;;;5093172;28;20490;-75
2022/06/28 07:32:26;;;;;;;15.88;3.85;;;19.10;94.50;;;;;;5092557;28;20485;-75
2022/06/28 07:34:52;;;;;;;15.52;3.60;;;19.10;94.30;;;;;;5092554;28;20043;-75
2022/06/28 07:37:18;;;;;;;12.95;2.58;;;19.10;94.30;;;;;;5092692;28;20028;-75
2022/06/28 07:39:43;;;;;;;20.88;3.55;;;19.10;94.10;;;;;;5092350;28;20059;-75
2022/06/28 07:42:09;;;;;;;17.48;3.20;;;19.20;94.20;;;;;;5092959;28;20042;-75
2022/06/28 07:44:35;;;;;;;14.32;3.30;;;19.30;94.20;;;;;;5092444;28;20110;-75
2022/06/28 07:47:00;;;;;;;13.15;2.70;;;19.40;94.40;;;;;;5096060;28;20042;-75
2022/06/28 07:52:33;;;;;;;15.07;3.28;;;19.50;94.30;;;;;;5096475;28;20131;-75
2022/06/28 07:54:55;;;;;;;10.55;2.50;;;19.60;93.70;;;;;;5096380;28;20510;-75
2022/06/28 07:57:21;;;;;;;12.98;2.70;;;19.70;93.50;;;;;;5096649;28;20024;-76
2022/06/28 07:59:46;;;;;;;11.32;2.58;;;19.80;92.90;;;;;;5096341;28;20425;-75
2022/06/28 08:02:12;;;;;;;20.38;3.45;;;19.90;92.50;;;;;;5096241;28;20511;-75
2022/06/28 08:04:38;;;;;;;13.40;2.33;;;20.00;92.90;;;;;;5095981;28;20421;-75
2022/06/28 08:07:03;;;;;;;11.10;2.42;;;20.00;93.00;;;;;;5096402;28;20020;-77
2022/06/28 08:09:29;;;;;;;8.68;2.50;;;20.10;91.70;;;;;;5095801;28;20036;-75
2022/06/28 08:11:54;;;;;;;10.90;2.25;;;20.00;91.10;;;;;;5095843;28;20124;-75
2022/06/28 08:14:20;;;;;;;8.07;1.60;;;20.20;91.20;;;;;;5095923;28;20023;-75
2022/06/28 08:16:46;;;;;;;8.63;1.45;;;20.30;90.50;;;;;;5095555;28;20028;-75
2022/06/28 08:19:15;;;;;;;11.35;2.13;;;20.40;89.60;;;;;;5095654;28;20016;-76
2022/06/28 08:21:40;;;;;;;6.97;1.20;;;20.50;90.00;;;;;;5095289;28;20031;-75
2022/06/28 08:24:06;;;;;;;9.15;1.02;;;20.50;87.50;;;;;;5095655;28;20031;-75
2022/06/28 08:26:32;;;;;;;8.05;1.17;;;20.50;86.10;;;;;;5095720;28;20016;-75
2022/06/28 08:28:58;;;;;;;12.15;1.30;;;20.60;86.80;;;;;;5095502;28;20103;-75
2022/06/28 08:31:23;;;;;;;8.57;1.52;;;20.70;86.40;;;;;;5095224;28;20065;-75
2022/06/28 08:33:49;;;;;;;6.88;1.20;;;20.70;84.90;;;;;;5095195;28;20024;-75
2022/06/28 08:36:14;;;;;;;9.18;1.27;;;20.70;84.50;;;;;;5095353;28;20088;-75
2022/06/28 08:38:40;;;;;;;11.20;1.38;;;20.80;83.70;;;;;;5095567;28;20017;-76
2022/06/28 08:41:06;;;;;;;9.55;1.27;;;20.90;83.90;;;;;;5094990;28;20104;-75
2022/06/28 08:43:32;;;;;;;14.93;1.35;;;20.90;83.30;;;;;;5095241;28;20068;-75
2022/06/28 08:45:58;;;;;;;4.70;0.80;;;21.00;81.70;;;;;;5095112;28;20028;-75
2022/06/28 08:48:31;;;;;;;8.82;1.48;;;21.10;82.10;;;;;;5094968;28;20097;-75
2022/06/28 08:50:59;;;;;;;5.72;1.30;;;21.10;81.70;;;;;;5095464;28;20092;-75
2022/06/28 08:53:26;;;;;;;8.23;1.17;;;21.20;81.10;;;;;;5095214;28;20043;-75
2022/06/28 08:55:52;;;;;;;7.90;1.48;;;21.30;83.20;;;;;;5095518;28;20025;-76
2022/06/28 08:58:17;;;;;;;8.60;1.65;;;21.40;82.60;;;;;;5094513;28;20054;-75
2022/06/28 09:00:43;;;;;;;10.48;1.98;;;21.50;82.00;;;;;;5095545;28;20020;-75
2022/06/28 09:03:09;;;;;;;8.02;1.23;;;21.60;81.20;;;;;;5094845;28;20020;-75
2022/06/28 09:05:34;;;;;;;6.07;0.90;;;21.60;79.20;;;;;;5095317;28;20403;-75
2022/06/28 09:08:00;;;;;;;6.90;0.90;;;21.70;78.30;;;;;;5095138;28;20024;-75
2022/06/28 09:10:26;;;;;;;9.50;1.67;;;21.70;77.20;;;;;;5095332;28;20032;-75
2022/06/28 09:13:14;;;;;;;4.45;0.88;;;21.70;74.70;;;;;;5094986;28;20107;-75
2022/06/28 09:15:47;;;;;;;7.43;1.33;;;21.80;74.70;;;;;;5095263;28;20103;-75
2022/06/28 09:18:12;;;;;;;6.38;0.90;;;21.80;75.40;;;;;;5094982;28;20016;-75
2022/06/28 09:20:39;;;;;;;9.10;1.20;;;21.80;74.60;;;;;;5095027;28;20429;-75
2022/06/28 09:23:19;;;;;;;4.30;0.80;;;21.80;75.80;;;;;;5094677;28;20450;-75
2022/06/28 09:25:45;;;;;;;6.03;0.88;;;21.90;76.80;;;;;;5094840;28;20027;-75
2022/06/28 09:28:10;;;;;;;8.88;1.30;;;22.00;76.60;;;;;;5094905;28;20023;-75
2022/06/28 09:30:37;;;;;;;6.65;1.30;;;22.00;75.40;;;;;;5094441;28;20093;-75
2022/06/28 09:33:03;;;;;;;6.18;1.05;;;22.10;73.90;;;;;;5094896;28;20089;-75
2022/06/28 09:35:28;;;;;;;5.43;0.73;;;22.10;74.00;;;;;;5094296;28;20035;-75
2022/06/28 09:37:54;;;;;;;3.47;0.73;;;22.10;73.00;;;;;;5094666;28;20024;-75
2022/06/28 09:40:31;;;;;;;4.47;0.60;;;22.20;70.00;;;;;;5094307;28;20028;-75
2022/06/28 09:43:15;;;;;;;6.10;0.70;;;22.20;70.00;;;;;;5094240;28;20495;-75
2022/06/28 09:45:47;;;;;;;6.68;0.93;;;22.20;69.60;;;;;;5094466;28;20032;-76
2022/06/28 09:48:17;;;;;;;3.08;0.68;;;22.20;69.70;;;;;;5093966;28;20543;-75
2022/06/28 09:50:43;;;;;;;3.35;0.50;;;22.30;69.20;;;;;;5094105;28;20036;-76
2022/06/28 09:53:13;;;;;;;4.30;0.70;;;22.40;69.40;;;;;;5094022;28;20158;-76
2022/06/28 09:55:40;;;;;;;4.15;0.60;;;22.50;69.70;;;;;;5094169;28;20102;-76
2022/06/28 09:58:05;;;;;;;2.90;0.35;;;22.60;69.00;;;;;;5094046;28;20085;-76
2022/06/28 10:00:34;;;;;;;4.38;0.40;;;22.60;66.80;;;;;;5093676;28;20103;-76
2022/06/28 10:02:59;;;;;;;4.22;0.70;;;22.80;66.90;;;;;;5093978;28;20581;-75
2022/06/28 10:05:26;;;;;;;3.22;0.63;;;22.90;68.30;;;;;;5093961;28;20107;-76
2022/06/28 10:07:52;;;;;;;2.72;0.60;;;23.00;68.50;;;;;;5093695;28;20024;-75
2022/06/28 10:10:20;;;;;;;5.13;0.40;;;23.00;67.60;;;;;;5092412;28;20039;-75
2022/06/28 10:15:36;;;;;;;3.65;0.40;;;23.20;64.20;;;;;;5094003;28;20043;-76
2022/06/28 10:18:17;;;;;;;3.33;0.55;;;23.20;64.10;;;;;;5093971;28;20143;-76
2022/06/28 10:20:44;;;;;;;1.95;0.22;;;23.20;64.10;;;;;;5093988;28;20024;-76
2022/06/28 10:23:28;;;;;;;5.88;0.47;;;23.30;63.20;;;;;;5093856;28;20026;-76
2022/06/28 10:26:17;;;;;;;2.83;0.47;;;23.30;62.40;;;;;;5093687;28;20081;-76
2022/06/28 10:29:03;;;;;;;3.97;0.60;;;23.40;62.60;;;;;;5093958;28;20107;-76
2022/06/28 10:31:30;;;;;;;3.65;0.52;;;23.30;62.20;;;;;;5093281;28;20032;-76
2022/06/28 10:34:01;;;;;;;5.97;0.95;;;23.30;63.10;;;;;;5093348;28;20028;-77
2022/06/28 10:36:48;;;;;;;3.40;0.50;;;23.20;64.00;;;;;;5092966;28;20028;-77
2022/06/28 10:39:18;;;;;;;3.78;0.30;;;23.20;63.90;;;;;;5093541;28;20055;-77
2022/06/28 10:42:13;;;;;;;2.45;0.50;;;23.30;64.10;;;;;;5093466;28;20104;-78
2022/06/28 10:44:39;;;;;;;3.97;0.68;;;23.40;61.50;;;;;;5092837;28;20030;-77
2022/06/28 10:47:04;;;;;;;3.40;0.52;;;23.50;63.10;;;;;;5093160;28;20020;-77
2022/06/28 10:49:52;;;;;;;3.17;0.50;;;23.70;63.80;;;;;;5093287;28;20044;-77
2022/06/28 10:52:25;;;;;;;4.10;0.30;;;23.80;62.70;;;;;;5093288;28;20036;-77
2022/06/28 10:54:51;;;;;;;2.83;0.40;;;23.80;61.50;;;;;;5093277;28;20520;-76
2022/06/28 10:57:33;;;;;;;5.32;0.60;;;23.90;63.70;;;;;;5092822;28;20024;-77
2022/06/28 11:00:04;;;;;;;2.88;0.28;;;24.10;64.60;;;;;;5093221;28;20567;-77
2022/06/28 11:02:56;;;;;;;3.55;0.60;;;24.20;64.60;;;;;;5093191;28;20032;-76
2022/06/28 11:05:26;;;;;;;4.33;0.50;;;24.30;62.10;;;;;;5089726;28;20435;-76
2022/06/28 11:08:00;;;;;;;3.55;0.40;;;24.30;62.00;;;;;;5092926;28;20027;-76
2022/06/28 11:10:26;;;;;;;2.05;0.20;;;24.40;62.30;;;;;;5092578;28;20024;-77
2022/06/28 11:12:52;;;;;;;4.13;0.22;;;24.40;60.20;;;;;;5093069;28;20063;-77
2022/06/28 11:15:29;;;;;;;4.10;0.50;;;24.30;60.30;;;;;;5093124;28;20055;-77
2022/06/28 11:17:54;;;;;;;1.23;0.25;;;24.30;60.00;;;;;;5092915;28;20131;-77
2022/06/28 11:20:22;;;;;;;3.17;0.30;;;24.30;60.80;;;;;;5093342;28;20055;-77
2022/06/28 11:22:50;;;;;;;3.17;0.30;;;24.30;59.70;;;;;;5097191;28;20040;-77
2022/06/28 11:25:18;;;;;;;3.58;0.50;;;24.30;59.90;;;;;;5097540;28;20051;-75
2022/06/28 11:27:57;;;;;;;2.30;0.50;;;24.20;59.10;;;;;;5097175;28;20024;-76
2022/06/28 11:30:28;;;;;;;1.88;0.22;;;24.10;59.80;;;;;;5097080;28;20054;-75
2022/06/28 11:32:59;;;;;;;3.45;0.40;;;24.30;60.60;;;;;;5096685;28;20036;-77
2022/06/28 11:35:28;;;;;;;6.38;0.43;;;24.30;60.50;;;;;;5097177;28;20103;-76
2022/06/28 11:37:56;;;;;;;4.38;0.30;;;24.30;60.50;;;;;;5097120;28;20407;-75
2022/06/28 11:40:25;;;;;;;1.67;0.30;;;24.30;61.00;;;;;;5097078;28;20020;-76
2022/06/28 11:43:08;;;;;;;3.03;0.38;;;24.30;61.30;;;;;;5096557;28;20034;-76
2022/06/28 11:45:36;;;;;;;1.85;0.30;;;24.10;60.80;;;;;;5096957;28;20371;-76
2022/06/28 11:48:08;;;;;;;4.30;0.60;;;24.20;61.80;;;;;;5096455;28;20387;-76
2022/06/28 11:50:40;;;;;;;3.53;0.32;;;24.20;60.20;;;;;;5096576;28;20036;-76
2022/06/28 11:53:06;;;;;;;3.47;0.30;;;24.40;60.40;;;;;;5096105;28;20020;-76
2022/06/28 11:55:41;;;;;;;2.47;0.40;;;24.40;60.70;;;;;;5096175;28;20028;-76
2022/06/28 11:58:20;;;;;;;4.97;0.30;;;24.40;61.80;;;;;;5096515;28;20062;-77
2022/06/28 12:01:08;;;;;;;2.35;0.35;;;24.40;60.10;;;;;;5096248;28;20467;-76
2022/06/28 12:03:55;;;;;;;2.88;0.47;;;24.50;60.90;;;;;;5096435;28;20065;-76
2022/06/28 12:06:23;;;;;;;4.20;0.30;;;24.60;62.00;;;;;;5085292;28;20028;-76
2022/06/28 12:08:50;;;;;;;2.20;0.30;;;24.60;60.20;;;;;;5096311;28;20059;-76
2022/06/28 12:11:30;;;;;;;2.55;0.30;;;24.50;61.70;;;;;;5095742;28;20039;-77
2022/06/28 12:14:07;;;;;;;2.78;0.50;;;24.50;61.00;;;;;;5096261;28;20024;-76
2022/06/28 12:16:32;;;;;;;3.38;0.40;;;24.50;60.90;;;;;;5096096;28;20103;-76
2022/06/28 12:18:59;;;;;;;2.17;0.40;;;24.60;60.40;;;;;;5096020;28;20112;-76
2022/06/28 12:21:26;;;;;;;2.90;0.30;;;24.70;60.90;;;;;;5096159;28;20025;-76
2022/06/28 12:23:54;;;;;;;2.00;0.20;;;24.70;60.50;;;;;;5095838;28;20162;-76
2022/06/28 12:26:21;;;;;;;4.05;0.50;;;24.80;60.60;;;;;;5095510;28;20088;-76
2022/06/28 12:28:47;;;;;;;3.63;0.75;;;24.80;60.60;;;;;;5095766;28;20471;-77
2022/06/28 12:31:13;;;;;;;3.30;0.38;;;24.90;60.90;;;;;;5095685;28;20125;-76
2022/06/28 12:33:39;;;;;;;1.83;0.30;;;25.00;62.20;;;;;;5094226;28;20048;-76
2022/06/28 12:36:05;;;;;;;5.72;0.45;;;25.10;61.10;;;;;;5095314;28;20034;-76
2022/06/28 12:38:31;;;;;;;4.05;0.50;;;25.00;60.60;;;;;;5095560;28;20099;-76
2022/06/28 12:40:57;;;;;;;4.80;0.50;;;24.90;61.20;;;;;;5095307;28;20021;-76
2022/06/28 12:43:23;;;;;;;4.35;0.30;;;24.80;61.60;;;;;;5095599;28;20027;-76
2022/06/28 12:45:49;;;;;;;2.28;0.55;;;24.90;62.10;;;;;;5095650;28;20032;-76
2022/06/28 12:48:14;;;;;;;3.38;0.52;;;25.00;60.80;;;;;;5095246;28;20374;-76
2022/06/28 12:50:40;;;;;;;1.83;0.32;;;25.10;60.80;;;;;;5095400;28;20454;-76
2022/06/28 12:53:06;;;;;;;2.55;0.30;;;25.20;60.40;;;;;;5095346;28;20020;-77
2022/06/28 12:55:32;;;;;;;2.47;0.30;;;25.20;59.20;;;;;;5095716;28;20032;-76
2022/06/28 12:57:58;;;;;;;2.75;0.30;;;25.30;59.40;;;;;;5095402;28;20467;-76
2022/06/28 13:00:24;;;;;;;3.55;0.22;;;25.40;59.00;;;;;;5095094;28;20103;-76